DLH weather

Duluth International Airport
Duluth, Minnesota, United States

Public forecast

Using degrees Fahrenheit for public forecast. Weather courtesy of forecast.io.

Current aviation weather report (METAR) for Duluth International Airport

Retrieved 2020/07/04 05:55 UTC (16 minutes ago):

KDLH 040555Z 00000KT 10SM CLR 18/16 A3011 RMK AO2 SLP191 T01780156 10261 20178 403390178 51005

Aviation forecast (TAF) for Duluth International Airport

Retrieved 2020/07/04 06:54 UTC (0 seconds ago):

TAF KDLH 040552Z 0406/0506 00000KT P6SM SKC FM040900 00000KT 3SM BR FEW008 FM041200 VRB02KT P6SM FEW070